createdAt,value
2017-03-18T00:00:21.270Z,1001.78
2017-03-18T00:01:02.136Z,1001.77
2017-03-18T00:01:43.015Z,1001.8
2017-03-18T00:02:23.904Z,1001.78
2017-03-18T00:03:04.791Z,1001.77
2017-03-18T00:03:45.675Z,1001.79
2017-03-18T00:04:26.558Z,1001.83
2017-03-18T00:05:07.456Z,1001.83
2017-03-18T00:05:48.341Z,1001.8
2017-03-18T00:06:29.220Z,1001.81
2017-03-18T00:07:10.099Z,1001.75
2017-03-18T00:07:50.971Z,1001.74
2017-03-18T00:08:31.884Z,1001.72
2017-03-18T00:09:12.761Z,1001.71
2017-03-18T00:09:53.644Z,1001.73
2017-03-18T00:10:34.531Z,1001.7
2017-03-18T00:11:15.473Z,1001.73
2017-03-18T00:11:56.306Z,1001.67
2017-03-18T00:12:37.181Z,1001.72
2017-03-18T00:13:18.071Z,1001.7
2017-03-18T00:13:58.948Z,1001.72
2017-03-18T00:14:39.826Z,1001.66
2017-03-18T00:15:20.706Z,1001.69
2017-03-18T00:16:01.590Z,1001.68
2017-03-18T00:16:42.472Z,1001.65
2017-03-18T00:17:23.350Z,1001.63
2017-03-18T00:18:04.236Z,1001.69
2017-03-18T00:18:45.155Z,1001.69
2017-03-18T00:19:26.002Z,1001.68
2017-03-18T00:20:06.883Z,1001.65
2017-03-18T00:20:47.760Z,1001.61
2017-03-18T00:21:28.629Z,1001.64
2017-03-18T00:22:09.513Z,1001.64
2017-03-18T00:22:50.396Z,1001.69
2017-03-18T00:23:31.279Z,1001.62
2017-03-18T00:24:12.150Z,1001.6
2017-03-18T00:24:53.028Z,1001.58
2017-03-18T00:25:33.913Z,1001.58
2017-03-18T00:26:14.791Z,1001.58
2017-03-18T00:26:55.674Z,1001.57
2017-03-18T00:27:36.563Z,1001.61
2017-03-18T00:28:17.448Z,1001.62
2017-03-18T00:28:58.333Z,1001.58
2017-03-18T00:29:39.207Z,1001.6
2017-03-18T00:30:20.087Z,1001.55
2017-03-18T00:31:00.972Z,1001.51
2017-03-18T00:31:41.977Z,1001.6
2017-03-18T00:32:22.847Z,1001.55
2017-03-18T00:33:03.736Z,1001.58
2017-03-18T00:33:44.617Z,1001.56
2017-03-18T00:34:25.500Z,1001.49
2017-03-18T00:35:06.376Z,1001.42
2017-03-18T00:35:47.253Z,1001.44
2017-03-18T00:36:28.211Z,1001.44
2017-03-18T00:37:09.110Z,1001.45
2017-03-18T00:37:49.991Z,1001.41
2017-03-18T00:38:30.875Z,1001.38
2017-03-18T00:39:11.760Z,1001.4
2017-03-18T00:39:52.651Z,1001.4
2017-03-18T00:40:33.544Z,1001.34
2017-03-18T00:41:14.425Z,1001.3
2017-03-18T00:41:55.310Z,1001.3
2017-03-18T00:42:36.200Z,1001.28
2017-03-18T00:43:17.080Z,1001.25
2017-03-18T00:43:57.967Z,1001.21
2017-03-18T00:44:38.853Z,1001.24
2017-03-18T00:45:19.733Z,1001.25
2017-03-18T00:46:00.662Z,1001.24
2017-03-18T00:46:41.552Z,1001.24
2017-03-18T00:47:22.445Z,1001.17
2017-03-18T00:48:03.335Z,1001.18
2017-03-18T00:48:44.219Z,1001.17
2017-03-18T00:49:25.102Z,1001.16
2017-03-18T00:50:05.996Z,1001.14
2017-03-18T00:50:46.881Z,1001.2
2017-03-18T00:51:27.763Z,1001.11
2017-03-18T00:52:08.636Z,1001.17
2017-03-18T00:52:49.510Z,1001.17
2017-03-18T00:53:30.396Z,1001.17
2017-03-18T00:54:11.271Z,1001.18
2017-03-18T00:54:52.155Z,1001.12
2017-03-18T00:55:33.036Z,1001.13
2017-03-18T00:56:13.919Z,1001.09
2017-03-18T00:56:54.804Z,1001.12
2017-03-18T00:57:35.687Z,1001.03
2017-03-18T00:58:16.610Z,1001.02
2017-03-18T00:58:57.500Z,1001.04
2017-03-18T00:59:38.395Z,1001.05
2017-03-18T01:00:19.267Z,1001.03
2017-03-18T01:01:00.161Z,1001.05
2017-03-18T01:01:41.039Z,1001.02
2017-03-18T01:02:21.931Z,1001
2017-03-18T01:03:02.810Z,1000.97
2017-03-18T01:03:43.694Z,1001.01
2017-03-18T01:04:24.579Z,1000.99
2017-03-18T01:05:05.450Z,1000.94
2017-03-18T01:05:46.393Z,1000.92
2017-03-18T01:06:27.260Z,1000.94
2017-03-18T01:07:08.142Z,1000.92
2017-03-18T01:07:49.022Z,1000.92
2017-03-18T01:08:29.900Z,1000.9
2017-03-18T01:09:10.789Z,1000.86
2017-03-18T01:09:51.671Z,1000.83
2017-03-18T01:10:32.555Z,1000.82
2017-03-18T01:11:13.433Z,1000.81
2017-03-18T01:11:54.317Z,1000.85
2017-03-18T01:12:35.198Z,1000.78
2017-03-18T01:13:16.077Z,1000.76
2017-03-18T01:13:56.965Z,1000.75
2017-03-18T01:14:37.855Z,1000.77
2017-03-18T01:15:18.726Z,1000.74
2017-03-18T01:15:59.613Z,1000.74
2017-03-18T01:16:40.498Z,1000.71
2017-03-18T01:17:21.413Z,1000.67
2017-03-18T01:18:02.295Z,1000.67
2017-03-18T01:18:43.180Z,1000.63
2017-03-18T01:19:24.064Z,1000.61
2017-03-18T01:20:04.944Z,1000.54
2017-03-18T01:20:45.831Z,1000.54
2017-03-18T01:21:26.748Z,1000.54
2017-03-18T01:22:07.633Z,1000.49
2017-03-18T01:22:48.520Z,1000.44
2017-03-18T01:23:29.403Z,1000.47
2017-03-18T01:24:10.288Z,1000.48
2017-03-18T01:24:51.160Z,1000.4
2017-03-18T01:25:32.046Z,1000.44
2017-03-18T01:26:12.936Z,1000.42
2017-03-18T01:26:53.814Z,1000.47
2017-03-18T01:27:34.700Z,1000.36
2017-03-18T01:28:15.586Z,1000.37
2017-03-18T01:28:56.472Z,1000.4
2017-03-18T01:29:37.352Z,1000.36
2017-03-18T01:30:18.231Z,1000.28
2017-03-18T01:30:59.113Z,1000.32
2017-03-18T01:31:40.022Z,1000.34
2017-03-18T01:32:20.952Z,1000.38
2017-03-18T01:33:01.833Z,1000.34
2017-03-18T01:33:42.710Z,1000.31
2017-03-18T01:34:23.590Z,1000.23
2017-03-18T01:35:04.475Z,1000.33
2017-03-18T01:35:45.355Z,1000.28
2017-03-18T01:36:26.221Z,1000.26
2017-03-18T01:37:07.090Z,1000.27
2017-03-18T01:37:47.968Z,1000.26
2017-03-18T01:38:28.853Z,1000.22
2017-03-18T01:39:09.745Z,1000.24
2017-03-18T01:39:50.624Z,1000.25
2017-03-18T01:40:31.513Z,1000.26
2017-03-18T01:41:12.395Z,1000.35
2017-03-18T01:41:53.276Z,1000.28
2017-03-18T01:42:34.156Z,1000.27
2017-03-18T01:43:15.049Z,1000.27
2017-03-18T01:43:55.932Z,1000.23
2017-03-18T01:44:36.809Z,1000.25
2017-03-18T01:45:17.697Z,1000.07
2017-03-18T01:45:58.578Z,1000.19
2017-03-18T01:46:39.460Z,1000.07
2017-03-18T01:47:20.341Z,1000.19
2017-03-18T01:48:01.221Z,1000.22
2017-03-18T01:48:42.101Z,1000.18
2017-03-18T01:49:23.542Z,1000.09
2017-03-18T01:50:04.418Z,1000.07
2017-03-18T01:50:45.300Z,1000.03
2017-03-18T01:51:26.177Z,1000.11
2017-03-18T01:52:07.063Z,1000.09
2017-03-18T01:52:47.942Z,1000.06
2017-03-18T01:53:28.822Z,1000
2017-03-18T01:54:09.698Z,1000.05
2017-03-18T01:54:50.582Z,999.94
2017-03-18T01:55:31.463Z,999.97
2017-03-18T01:56:12.343Z,999.93
2017-03-18T01:56:53.227Z,999.94
2017-03-18T01:57:34.108Z,999.96
2017-03-18T01:58:14.984Z,999.95
2017-03-18T01:58:55.860Z,999.92
2017-03-18T01:59:36.743Z,999.88
2017-03-18T02:00:17.633Z,999.94
2017-03-18T02:00:58.512Z,999.89
2017-03-18T02:01:39.390Z,999.88
2017-03-18T02:02:20.267Z,999.91
2017-03-18T02:03:01.150Z,999.93
2017-03-18T02:03:42.034Z,999.85
2017-03-18T02:04:22.910Z,999.9
2017-03-18T02:05:03.788Z,999.87
2017-03-18T02:05:44.682Z,999.88
2017-03-18T02:06:25.557Z,999.81
2017-03-18T02:07:06.431Z,999.87
2017-03-18T02:07:47.311Z,999.8
2017-03-18T02:08:28.190Z,999.83
2017-03-18T02:09:09.088Z,999.78
2017-03-18T02:09:49.954Z,999.78
2017-03-18T02:10:30.868Z,999.72
2017-03-18T02:11:11.747Z,999.68
2017-03-18T02:11:52.626Z,999.71
2017-03-18T02:12:33.510Z,999.73
2017-03-18T02:13:14.389Z,999.78
2017-03-18T02:13:55.267Z,999.69
2017-03-18T02:14:36.148Z,999.7
2017-03-18T02:15:17.030Z,999.66
2017-03-18T02:15:57.926Z,999.68
2017-03-18T02:16:38.812Z,999.7
2017-03-18T02:17:19.701Z,999.73
2017-03-18T02:18:00.573Z,999.81
2017-03-18T02:18:41.453Z,999.71
2017-03-18T02:19:22.331Z,999.65
2017-03-18T02:20:03.216Z,999.66
2017-03-18T02:20:44.098Z,999.64
2017-03-18T02:21:24.977Z,999.63
2017-03-18T02:22:05.878Z,999.69
2017-03-18T02:22:46.763Z,999.55
2017-03-18T02:23:27.644Z,999.55
2017-03-18T02:24:08.524Z,999.6
2017-03-18T02:24:49.408Z,999.58
2017-03-18T02:25:30.300Z,999.6
2017-03-18T02:26:11.181Z,999.61
2017-03-18T02:26:52.067Z,999.55
2017-03-18T02:27:32.952Z,999.61
2017-03-18T02:28:13.829Z,999.58
2017-03-18T02:28:54.711Z,999.57
2017-03-18T02:29:35.616Z,999.53
2017-03-18T02:30:16.466Z,999.54
2017-03-18T02:30:57.348Z,999.49
2017-03-18T02:31:38.232Z,999.42
2017-03-18T02:32:19.117Z,999.42
2017-03-18T02:32:59.987Z,999.44
2017-03-18T02:33:40.873Z,999.42
2017-03-18T02:34:21.757Z,999.39
2017-03-18T02:35:02.640Z,999.35
2017-03-18T02:35:43.518Z,999.36
2017-03-18T02:36:24.405Z,999.34
2017-03-18T02:37:05.292Z,999.38
2017-03-18T02:37:46.185Z,999.38
2017-03-18T02:38:27.078Z,999.33
2017-03-18T02:39:07.961Z,999.39
2017-03-18T02:39:48.845Z,999.3
2017-03-18T02:40:29.731Z,999.23
2017-03-18T02:41:10.612Z,999.23
2017-03-18T02:41:51.487Z,999.27
2017-03-18T02:42:32.376Z,999.19
2017-03-18T02:43:13.255Z,999.19
2017-03-18T02:43:54.133Z,999.21
2017-03-18T02:44:35.008Z,999.16
2017-03-18T02:45:15.894Z,999.18
2017-03-18T02:45:56.771Z,999.15
2017-03-18T02:46:37.652Z,999.09
2017-03-18T02:47:18.534Z,999.12
2017-03-18T02:47:59.425Z,999.1
2017-03-18T02:48:40.300Z,998.98
2017-03-18T02:49:21.179Z,999.01
2017-03-18T02:50:02.048Z,999.03
2017-03-18T02:50:42.928Z,999.02
2017-03-18T02:51:23.815Z,998.93
2017-03-18T02:52:04.699Z,998.9
2017-03-18T02:52:45.578Z,998.95
2017-03-18T02:53:26.459Z,998.77
2017-03-18T02:54:07.333Z,998.8
2017-03-18T02:54:48.216Z,998.74
2017-03-18T02:55:29.098Z,998.76
2017-03-18T02:56:09.968Z,998.81
2017-03-18T02:56:50.849Z,998.77
2017-03-18T02:57:31.733Z,998.78
2017-03-18T02:58:12.616Z,998.77
2017-03-18T02:58:53.500Z,998.72
2017-03-18T02:59:34.371Z,998.73
2017-03-18T03:00:15.245Z,998.66
2017-03-18T03:00:56.133Z,998.7
2017-03-18T03:01:37.016Z,998.61
2017-03-18T03:02:17.893Z,998.58
2017-03-18T03:02:58.771Z,998.61
2017-03-18T03:03:39.653Z,998.59
2017-03-18T03:04:20.538Z,998.54
2017-03-18T03:05:01.420Z,998.52
2017-03-18T03:05:42.299Z,998.49
2017-03-18T03:06:23.187Z,998.51
2017-03-18T03:07:04.069Z,998.49
2017-03-18T03:07:44.953Z,998.45
2017-03-18T03:08:25.818Z,998.46
2017-03-18T03:09:06.703Z,998.48
2017-03-18T03:09:47.584Z,998.45
2017-03-18T03:10:28.465Z,998.42
2017-03-18T03:11:09.343Z,998.36
2017-03-18T03:11:50.223Z,998.39
2017-03-18T03:12:31.094Z,998.38
2017-03-18T03:13:11.981Z,998.34
2017-03-18T03:13:52.864Z,998.38
2017-03-18T03:14:33.746Z,998.33
2017-03-18T03:15:14.627Z,998.26
2017-03-18T03:15:55.513Z,998.32
2017-03-18T03:16:36.437Z,998.3
2017-03-18T03:17:17.323Z,998.24
2017-03-18T03:17:58.210Z,998.26
2017-03-18T03:18:39.088Z,998.24
2017-03-18T03:19:19.974Z,998.28
2017-03-18T03:20:00.865Z,998.18
2017-03-18T03:20:41.745Z,998.19
2017-03-18T03:21:22.622Z,998.18
2017-03-18T03:22:03.509Z,998.13
2017-03-18T03:22:44.395Z,998.11
2017-03-18T03:23:25.279Z,998.14
2017-03-18T03:24:06.157Z,998.09
2017-03-18T03:24:47.040Z,998.15
2017-03-18T03:25:27.930Z,998.11
2017-03-18T03:26:08.815Z,998.1
2017-03-18T03:26:49.694Z,998.07
2017-03-18T03:27:30.577Z,998.07
2017-03-18T03:28:11.461Z,998.06
2017-03-18T03:28:52.341Z,998.01
2017-03-18T03:29:33.222Z,997.99
2017-03-18T03:30:14.109Z,997.98
2017-03-18T03:30:54.991Z,998.02
2017-03-18T03:31:35.871Z,998
2017-03-18T03:32:16.753Z,997.95
2017-03-18T03:32:57.635Z,997.97
2017-03-18T03:33:38.517Z,997.98
2017-03-18T03:34:19.392Z,997.91
2017-03-18T03:35:00.277Z,997.96
2017-03-18T03:35:41.160Z,997.91
2017-03-18T03:36:22.044Z,997.92
2017-03-18T03:37:02.928Z,997.92
2017-03-18T03:37:43.799Z,997.9
2017-03-18T03:38:24.674Z,997.93
2017-03-18T03:39:05.558Z,997.86
2017-03-18T03:39:46.443Z,997.84
2017-03-18T03:40:27.317Z,997.83
2017-03-18T03:41:08.191Z,997.8
2017-03-18T03:41:49.069Z,997.83
2017-03-18T03:42:29.946Z,997.79
2017-03-18T03:43:10.836Z,997.79
2017-03-18T03:43:51.708Z,997.81
2017-03-18T03:44:32.580Z,997.8
2017-03-18T03:45:13.450Z,997.78
2017-03-18T03:45:54.321Z,997.75
2017-03-18T03:46:35.196Z,997.71
2017-03-18T03:47:16.074Z,997.76
2017-03-18T03:47:56.957Z,997.7
2017-03-18T03:48:37.828Z,997.74
2017-03-18T03:49:18.716Z,997.68
2017-03-18T03:49:59.590Z,997.67
2017-03-18T03:50:40.475Z,997.68
2017-03-18T03:51:21.353Z,997.61
2017-03-18T03:52:02.238Z,997.61
2017-03-18T03:52:43.124Z,997.55
2017-03-18T03:53:24.003Z,997.55
2017-03-18T03:54:04.883Z,997.55
2017-03-18T03:54:45.771Z,997.55
2017-03-18T03:55:26.646Z,997.59
2017-03-18T03:56:07.522Z,997.55
2017-03-18T03:56:48.401Z,997.57
2017-03-18T03:57:29.282Z,997.59
2017-03-18T03:58:10.160Z,997.59
2017-03-18T03:58:51.040Z,997.6
2017-03-18T03:59:31.916Z,997.57
2017-03-18T04:00:12.802Z,997.64
2017-03-18T04:00:53.681Z,997.57
2017-03-18T04:01:34.559Z,997.55
2017-03-18T04:02:15.446Z,997.54
2017-03-18T04:02:56.328Z,997.46
2017-03-18T04:03:37.201Z,997.48
2017-03-18T04:04:18.072Z,997.42
2017-03-18T04:04:58.952Z,997.37
2017-03-18T04:05:39.837Z,997.3
2017-03-18T04:06:20.718Z,997.35
2017-03-18T04:07:01.592Z,997.32
2017-03-18T04:07:42.486Z,997.3
2017-03-18T04:08:23.369Z,997.27
2017-03-18T04:09:04.276Z,997.28
2017-03-18T04:09:45.132Z,997.26
2017-03-18T04:10:26.018Z,997.25
2017-03-18T04:11:06.897Z,997.25
2017-03-18T04:11:47.776Z,997.28
2017-03-18T04:12:28.658Z,997.29
2017-03-18T04:13:09.541Z,997.23
2017-03-18T04:13:50.415Z,997.19
2017-03-18T04:14:31.298Z,997.18
2017-03-18T04:15:12.183Z,997.18
2017-03-18T04:15:53.064Z,997.14
2017-03-18T04:16:33.946Z,997.18
2017-03-18T04:17:14.816Z,997.08
2017-03-18T04:17:55.693Z,997.07
2017-03-18T04:18:36.578Z,997.07
2017-03-18T04:19:17.456Z,997.01
2017-03-18T04:19:58.337Z,997.05
2017-03-18T04:20:39.215Z,997.01
2017-03-18T04:21:20.106Z,997.03
2017-03-18T04:22:00.988Z,997.03
2017-03-18T04:22:41.873Z,996.98
2017-03-18T04:23:22.762Z,997.01
2017-03-18T04:24:03.640Z,996.93
2017-03-18T04:24:44.521Z,996.91
2017-03-18T04:25:25.401Z,996.95
2017-03-18T04:26:06.275Z,996.87
2017-03-18T04:26:47.155Z,996.89
2017-03-18T04:27:28.034Z,996.83
2017-03-18T04:28:08.923Z,996.82
2017-03-18T04:28:49.810Z,996.78
2017-03-18T04:29:30.704Z,996.8
2017-03-18T04:30:11.609Z,996.81
2017-03-18T04:32:10.100Z,996.61
2017-03-18T04:32:50.979Z,996.61
2017-03-18T04:33:31.863Z,996.58
2017-03-18T04:34:12.751Z,996.53
2017-03-18T04:34:53.624Z,996.49
2017-03-18T04:35:34.496Z,996.44
2017-03-18T04:36:15.387Z,996.38
2017-03-18T04:36:56.270Z,996.4
2017-03-18T04:37:37.148Z,996.41
2017-03-18T04:38:18.016Z,996.42
2017-03-18T04:38:58.898Z,996.43
2017-03-18T04:39:39.778Z,996.42
2017-03-18T04:40:20.660Z,996.4
2017-03-18T04:41:01.534Z,996.41
2017-03-18T04:41:42.407Z,996.41
2017-03-18T04:42:23.289Z,996.4
2017-03-18T04:43:04.174Z,996.37
2017-03-18T04:43:45.056Z,996.38
2017-03-18T04:44:25.924Z,996.38
2017-03-18T04:45:06.794Z,996.36
2017-03-18T04:45:47.681Z,996.3
2017-03-18T04:46:28.559Z,996.3
2017-03-18T04:47:09.435Z,996.26
2017-03-18T04:47:50.307Z,996.25
2017-03-18T04:48:31.200Z,996.25
2017-03-18T04:49:12.081Z,996.19
2017-03-18T04:49:52.959Z,996.18
2017-03-18T04:50:33.837Z,996.13
2017-03-18T04:51:14.713Z,996.07
2017-03-18T04:51:55.587Z,996.08
2017-03-18T04:52:36.463Z,996.08
2017-03-18T04:53:17.349Z,996.11
2017-03-18T04:53:58.230Z,996.13
2017-03-18T04:54:39.106Z,996.1
2017-03-18T04:55:19.988Z,996.12
2017-03-18T04:56:00.881Z,996.17
2017-03-18T04:56:41.756Z,996.17
2017-03-18T04:57:22.634Z,996.15
2017-03-18T04:58:03.517Z,996.18
2017-03-18T04:58:44.392Z,996.14
2017-03-18T04:59:25.277Z,996.13
2017-03-18T05:00:06.156Z,996.17
2017-03-18T05:00:47.033Z,996.12
2017-03-18T05:01:27.916Z,996.11
2017-03-18T05:02:08.803Z,996.14
2017-03-18T05:02:49.684Z,996.08
2017-03-18T05:03:30.568Z,996.05
2017-03-18T05:04:11.442Z,996.03
2017-03-18T05:04:52.322Z,996.08
2017-03-18T05:05:33.197Z,996.08
2017-03-18T05:06:14.080Z,996.05
2017-03-18T05:06:54.958Z,995.99
2017-03-18T05:07:35.859Z,995.92
2017-03-18T05:08:16.747Z,995.96
2017-03-18T05:08:57.624Z,995.95
2017-03-18T05:09:38.504Z,995.95
2017-03-18T05:10:19.379Z,995.92
2017-03-18T05:11:00.259Z,995.87
2017-03-18T05:11:41.141Z,995.88
2017-03-18T05:12:22.030Z,995.75
2017-03-18T05:13:02.897Z,995.75
2017-03-18T05:15:12.038Z,995.63
2017-03-18T05:15:52.916Z,995.6
2017-03-18T05:16:33.798Z,995.54
2017-03-18T05:17:14.673Z,995.55
2017-03-18T05:17:55.549Z,995.48
2017-03-18T05:18:36.428Z,995.48
2017-03-18T05:19:17.314Z,995.38
2017-03-18T05:19:58.198Z,995.36
2017-03-18T05:20:39.077Z,995.36
2017-03-18T05:21:19.963Z,995.31
2017-03-18T05:22:00.848Z,995.32
2017-03-18T05:22:41.730Z,995.33
2017-03-18T05:23:22.612Z,995.26
2017-03-18T05:24:03.491Z,995.29
2017-03-18T05:24:44.369Z,995.27
2017-03-18T05:25:25.249Z,995.19
2017-03-18T05:26:06.131Z,995.25
2017-03-18T05:26:47.007Z,995.18
2017-03-18T05:27:27.892Z,995.25
2017-03-18T05:28:08.773Z,995.18
2017-03-18T05:28:49.652Z,995.27
2017-03-18T05:29:30.527Z,995.19
2017-03-18T05:30:11.405Z,995.26
2017-03-18T05:30:52.277Z,995.21
2017-03-18T05:31:33.160Z,995.25
2017-03-18T05:32:14.038Z,995.25
2017-03-18T05:32:54.926Z,995.2
2017-03-18T05:33:35.809Z,995.24
2017-03-18T05:34:16.698Z,995.22
2017-03-18T05:34:57.569Z,995.18
2017-03-18T05:35:38.447Z,995.11
2017-03-18T05:36:19.318Z,995.13
2017-03-18T05:37:00.202Z,995.08
2017-03-18T05:37:41.082Z,995.04
2017-03-18T05:38:21.970Z,995.03
2017-03-18T05:39:02.848Z,995.04
2017-03-18T05:39:43.727Z,994.96
2017-03-18T05:40:24.601Z,995.01
2017-03-18T05:41:05.477Z,995.02
2017-03-18T05:41:46.358Z,995
2017-03-18T05:42:27.242Z,995
2017-03-18T05:43:08.117Z,994.98
2017-03-18T05:43:48.992Z,994.93
2017-03-18T05:44:29.872Z,994.87
2017-03-18T05:45:10.750Z,994.89
2017-03-18T05:45:51.634Z,994.82
2017-03-18T05:46:32.510Z,994.82
2017-03-18T05:47:13.391Z,994.84
2017-03-18T05:47:54.266Z,994.78
2017-03-18T05:48:35.143Z,994.79
2017-03-18T05:49:16.028Z,994.77
2017-03-18T05:49:56.908Z,994.77
2017-03-18T05:50:37.788Z,994.66
2017-03-18T05:51:18.704Z,994.72
2017-03-18T05:51:59.574Z,994.61
2017-03-18T05:52:40.451Z,994.65
2017-03-18T05:53:21.343Z,994.58
2017-03-18T05:54:02.220Z,994.61
2017-03-18T05:54:43.094Z,994.58
2017-03-18T05:55:23.974Z,994.6
2017-03-18T05:56:04.855Z,994.54
2017-03-18T05:56:45.726Z,994.56
2017-03-18T05:57:26.610Z,994.48
2017-03-18T05:58:07.485Z,994.44
2017-03-18T05:58:48.415Z,994.48
2017-03-18T05:59:29.275Z,994.31
2017-03-18T06:00:10.156Z,994.33
2017-03-18T06:00:51.031Z,994.32
2017-03-18T06:01:31.905Z,994.32
2017-03-18T06:02:12.780Z,994.3
2017-03-18T06:02:53.661Z,994.33
2017-03-18T06:03:34.537Z,994.3
2017-03-18T06:04:15.422Z,994.26
2017-03-18T06:04:56.293Z,994.29
2017-03-18T06:05:37.175Z,994.26
2017-03-18T06:06:18.056Z,994.28
2017-03-18T06:06:58.937Z,994.25
2017-03-18T06:07:39.830Z,994.21
2017-03-18T06:08:20.713Z,994.24
2017-03-18T06:09:01.590Z,994.25
2017-03-18T06:09:42.472Z,994.13
2017-03-18T06:10:23.354Z,994.16
2017-03-18T06:11:04.236Z,994.17
2017-03-18T06:11:45.120Z,994.16
2017-03-18T06:12:25.994Z,994.13
2017-03-18T06:13:06.886Z,994.1
2017-03-18T06:13:47.776Z,994.13
2017-03-18T06:14:28.659Z,994.16
2017-03-18T06:15:09.545Z,994.14
2017-03-18T06:15:50.421Z,994.17
2017-03-18T06:16:31.304Z,994.19
2017-03-18T06:17:12.188Z,994.16
2017-03-18T06:17:53.065Z,994.1
2017-03-18T06:18:33.939Z,994.11
2017-03-18T06:19:14.815Z,994.06
2017-03-18T06:19:55.694Z,994.12
2017-03-18T06:20:36.579Z,994.07
2017-03-18T06:21:17.456Z,994.06
2017-03-18T06:21:58.334Z,994.03
2017-03-18T06:22:39.209Z,994
2017-03-18T06:23:20.091Z,993.98
2017-03-18T06:24:00.974Z,993.98
2017-03-18T06:24:41.873Z,993.96
2017-03-18T06:25:22.724Z,993.91
2017-03-18T06:26:03.597Z,993.89
2017-03-18T06:26:44.482Z,993.83
2017-03-18T06:27:25.360Z,993.83
2017-03-18T06:28:06.240Z,993.75
2017-03-18T06:28:47.129Z,993.73
2017-03-18T06:29:28.006Z,993.77
2017-03-18T06:30:08.887Z,993.66
2017-03-18T06:30:49.795Z,993.63
2017-03-18T06:31:30.649Z,993.59
2017-03-18T06:32:11.521Z,993.55
2017-03-18T06:32:52.410Z,993.57
2017-03-18T06:33:33.335Z,993.56
2017-03-18T06:34:14.183Z,993.55
2017-03-18T06:34:55.047Z,993.55
2017-03-18T06:35:35.934Z,993.57
2017-03-18T06:36:16.813Z,993.56
2017-03-18T06:36:57.691Z,993.59
2017-03-18T06:37:38.571Z,993.55
2017-03-18T06:38:19.447Z,993.52
2017-03-18T06:39:00.329Z,993.48
2017-03-18T06:39:41.209Z,993.51
2017-03-18T06:40:22.080Z,993.44
2017-03-18T06:41:02.952Z,993.4
2017-03-18T06:41:43.836Z,993.44
2017-03-18T06:42:24.715Z,993.38
2017-03-18T06:43:05.598Z,993.36
2017-03-18T06:43:46.478Z,993.28
2017-03-18T06:44:27.356Z,993.28
2017-03-18T06:45:08.231Z,993.32
2017-03-18T06:45:49.132Z,993.33
2017-03-18T06:46:30.010Z,993.26
2017-03-18T06:47:10.889Z,993.24
2017-03-18T06:47:51.767Z,993.29
2017-03-18T06:48:32.647Z,993.21
2017-03-18T06:49:13.522Z,993.1
2017-03-18T06:49:54.403Z,992.99
2017-03-18T06:50:35.280Z,993.05
2017-03-18T06:51:16.160Z,993.16
2017-03-18T06:51:57.043Z,993.23
2017-03-18T06:52:37.920Z,993.15
2017-03-18T06:53:18.799Z,993.16
2017-03-18T06:53:59.680Z,993.07
2017-03-18T06:54:40.560Z,993
2017-03-18T06:55:21.440Z,993.09
2017-03-18T06:56:02.322Z,993.02
2017-03-18T06:56:43.199Z,993.03
2017-03-18T06:57:24.077Z,993.05
2017-03-18T06:58:04.954Z,992.98
2017-03-18T06:58:45.840Z,992.99
2017-03-18T06:59:26.727Z,992.94
2017-03-18T07:00:07.610Z,992.9
2017-03-18T07:00:48.493Z,992.91
2017-03-18T07:01:29.373Z,992.89
2017-03-18T07:02:10.261Z,992.84
2017-03-18T07:02:51.145Z,992.81
2017-03-18T07:03:32.029Z,992.73
2017-03-18T07:04:12.908Z,992.71
2017-03-18T07:04:53.786Z,992.62
2017-03-18T07:05:34.664Z,992.66
2017-03-18T07:06:15.551Z,992.58
2017-03-18T07:06:56.437Z,992.67
2017-03-18T07:07:37.313Z,992.58
2017-03-18T07:08:18.189Z,992.47
2017-03-18T07:08:59.066Z,992.44
2017-03-18T07:09:39.932Z,992.47
2017-03-18T07:10:20.817Z,992.36
2017-03-18T07:11:01.691Z,992.46
2017-03-18T07:11:42.598Z,992.41
2017-03-18T07:12:23.477Z,992.41
2017-03-18T07:13:04.361Z,992.41
2017-03-18T07:13:45.240Z,992.39
2017-03-18T07:14:26.129Z,992.36
2017-03-18T07:15:07.011Z,992.4
2017-03-18T07:15:47.901Z,992.35
2017-03-18T07:16:28.783Z,992.33
2017-03-18T07:17:09.664Z,992.35
2017-03-18T07:17:50.544Z,992.38
2017-03-18T07:18:31.428Z,992.37
2017-03-18T07:19:12.308Z,992.36
2017-03-18T07:19:53.182Z,992.34
2017-03-18T07:20:34.059Z,992.34
2017-03-18T07:21:14.938Z,992.36
2017-03-18T07:21:55.820Z,992.39
2017-03-18T07:22:36.704Z,992.31
2017-03-18T07:23:17.583Z,992.33
2017-03-18T07:23:58.469Z,992.31
2017-03-18T07:24:39.356Z,992.29
2017-03-18T07:25:20.226Z,992.27
2017-03-18T07:26:01.098Z,992.23
2017-03-18T07:26:41.982Z,992.22
2017-03-18T07:27:22.871Z,992.21
2017-03-18T07:28:03.748Z,992.18
2017-03-18T07:28:44.626Z,992.19
2017-03-18T07:29:25.498Z,992.23
2017-03-18T07:30:06.390Z,992.18
2017-03-18T07:30:47.269Z,992.19
2017-03-18T07:31:28.150Z,992.16
2017-03-18T07:32:09.027Z,992.14
2017-03-18T07:32:49.910Z,992.12
2017-03-18T07:33:30.798Z,992.05
2017-03-18T07:34:11.677Z,992.08
2017-03-18T07:34:52.554Z,992.07
2017-03-18T07:35:33.432Z,992.04
2017-03-18T07:36:14.314Z,992.05
2017-03-18T07:36:55.190Z,992.08
2017-03-18T07:37:36.075Z,992.02
2017-03-18T07:38:16.956Z,992.01
2017-03-18T07:38:57.850Z,991.98
2017-03-18T07:39:38.741Z,991.98
2017-03-18T07:40:19.635Z,991.93
2017-03-18T07:41:00.487Z,991.94
2017-03-18T07:41:41.360Z,991.86
2017-03-18T07:42:22.245Z,991.85
2017-03-18T07:43:03.126Z,991.79
2017-03-18T07:43:44.000Z,991.76
2017-03-18T07:44:24.875Z,991.8
2017-03-18T07:45:05.737Z,991.79
2017-03-18T07:45:46.611Z,991.76
2017-03-18T07:46:27.504Z,991.84
2017-03-18T07:47:08.376Z,991.74
2017-03-18T07:47:49.250Z,991.72
2017-03-18T07:48:30.112Z,991.65
2017-03-18T07:49:10.985Z,991.58
2017-03-18T07:49:51.855Z,991.67
2017-03-18T07:50:32.749Z,991.66
2017-03-18T07:51:13.640Z,991.7
2017-03-18T07:51:54.507Z,991.68
2017-03-18T07:52:35.393Z,991.63
2017-03-18T07:53:16.263Z,991.59
2017-03-18T07:53:57.143Z,991.48
2017-03-18T07:54:38.024Z,991.49
2017-03-18T07:55:18.901Z,991.52
2017-03-18T07:55:59.787Z,991.52
2017-03-18T07:56:40.662Z,991.43
2017-03-18T07:57:21.547Z,991.45
2017-03-18T07:58:02.428Z,991.44
2017-03-18T07:58:43.311Z,991.43
2017-03-18T07:59:24.204Z,991.46
2017-03-18T08:00:05.085Z,991.42
2017-03-18T08:00:45.962Z,991.47
2017-03-18T08:01:26.876Z,991.48
2017-03-18T08:02:07.743Z,991.36
2017-03-18T08:02:48.629Z,991.3
2017-03-18T08:03:29.503Z,991.28
2017-03-18T08:04:10.385Z,991.24
2017-03-18T08:04:51.268Z,991.27
2017-03-18T08:05:32.150Z,991.32
2017-03-18T08:06:13.034Z,991.34
2017-03-18T08:06:53.918Z,991.39
2017-03-18T08:07:34.795Z,991.41
2017-03-18T08:08:15.672Z,991.41
2017-03-18T08:08:56.554Z,991.46
2017-03-18T08:09:37.430Z,991.51
2017-03-18T08:10:18.306Z,991.42
2017-03-18T08:10:59.187Z,991.43
2017-03-18T08:11:40.071Z,991.33
2017-03-18T08:12:20.949Z,991.31
2017-03-18T08:13:01.892Z,991.19
2017-03-18T08:13:42.770Z,991.11
2017-03-18T08:14:23.657Z,991.09
2017-03-18T08:15:04.548Z,991.11
2017-03-18T08:15:45.447Z,991.07
2017-03-18T08:16:26.328Z,991.08
2017-03-18T08:17:07.213Z,991.05
2017-03-18T08:17:48.097Z,991.14
2017-03-18T08:18:29.003Z,991.1
2017-03-18T08:19:09.858Z,991.14
2017-03-18T08:19:50.734Z,991.12
2017-03-18T08:20:31.617Z,991.11
2017-03-18T08:21:12.497Z,991.12
2017-03-18T08:21:53.364Z,991.17
2017-03-18T08:22:34.245Z,991.19
2017-03-18T08:23:15.129Z,991.23
2017-03-18T08:23:56.024Z,991.16
2017-03-18T08:24:36.910Z,991.25
2017-03-18T08:25:17.783Z,991.32
2017-03-18T08:25:58.669Z,991.33
2017-03-18T08:26:39.547Z,991.35
2017-03-18T08:27:20.429Z,991.4
2017-03-18T08:28:01.304Z,991.28
2017-03-18T08:28:42.200Z,991.28
2017-03-18T08:29:23.090Z,991.17
2017-03-18T08:30:03.973Z,991.04
2017-03-18T08:30:44.850Z,990.93